createdAt,value
2022-09-07T00:11:39.725Z,74.89
2022-09-07T00:12:00.771Z,75.09
2022-09-07T00:12:21.825Z,75.05
2022-09-07T00:12:42.875Z,75.00
2022-09-07T00:13:03.969Z,75.00
2022-09-07T00:13:25.029Z,75.08
2022-09-07T00:13:46.106Z,75.13
2022-09-07T00:14:07.134Z,75.11
2022-09-07T00:14:28.185Z,75.08
2022-09-07T00:14:49.237Z,75.05
2022-09-07T01:04:15.496Z,74.35
2022-09-07T01:04:36.544Z,74.47
2022-09-07T01:04:57.598Z,74.51
2022-09-07T01:05:18.657Z,74.56
2022-09-07T01:05:39.714Z,74.53
2022-09-07T01:06:00.799Z,74.48
2022-09-07T01:06:21.852Z,74.44
2022-09-07T01:06:42.892Z,74.48
2022-09-07T01:07:03.951Z,74.50
2022-09-07T01:07:24.995Z,74.54
2022-09-07T01:07:46.048Z,74.55
2022-09-07T01:08:07.108Z,74.65
2022-09-07T01:08:28.210Z,74.71
2022-09-07T01:08:49.259Z,74.73
2022-09-07T01:09:10.310Z,74.73
2022-09-07T01:09:31.361Z,74.68
2022-09-07T01:09:52.415Z,74.75
2022-09-07T01:10:13.475Z,74.70
2022-09-07T01:10:34.516Z,74.62
2022-09-07T01:10:55.570Z,74.56
2022-09-07T01:11:16.747Z,74.59
2022-09-07T01:11:37.798Z,74.60
2022-09-07T01:11:58.851Z,74.55
2022-09-07T01:12:19.901Z,74.61
2022-09-07T01:12:40.946Z,74.55
2022-09-07T01:13:01.990Z,74.57
2022-09-07T01:13:23.045Z,74.50
2022-09-07T01:13:44.104Z,74.58
2022-09-07T01:14:05.163Z,74.54
2022-09-07T01:14:26.218Z,74.47
2022-09-07T01:14:47.277Z,74.49
2022-09-07T01:15:08.323Z,74.48
2022-09-07T01:15:29.377Z,74.63
2022-09-07T01:15:50.533Z,74.65
2022-09-07T01:16:11.735Z,74.66
2022-09-07T01:16:32.940Z,74.67
2022-09-07T01:16:53.991Z,74.70
2022-09-07T01:17:15.042Z,74.69
2022-09-07T01:17:36.091Z,74.73
2022-09-07T01:17:57.142Z,74.75
2022-09-07T01:18:18.212Z,74.69
2022-09-07T01:18:39.260Z,74.73
2022-09-07T01:19:00.313Z,74.65
2022-09-07T01:19:21.366Z,74.65
2022-09-07T01:19:42.413Z,74.66
2022-09-07T01:20:03.463Z,74.60
2022-09-07T01:20:24.525Z,74.49
2022-09-07T01:20:45.587Z,74.39
2022-09-07T01:21:06.640Z,74.36
2022-09-07T01:21:27.715Z,74.22
2022-09-07T01:21:48.888Z,74.19
2022-09-07T01:22:09.944Z,74.19
2022-09-07T01:22:30.985Z,74.10
2022-09-07T01:22:52.045Z,74.03
2022-09-07T01:23:13.095Z,74.03
2022-09-07T01:23:34.147Z,74.17
2022-09-07T01:23:55.194Z,74.22
2022-09-07T01:24:16.254Z,74.25
2022-09-07T01:24:37.302Z,74.29
2022-09-07T01:24:58.352Z,74.35
2022-09-07T01:25:19.395Z,74.30
2022-09-07T01:25:40.449Z,74.34
2022-09-07T01:26:01.500Z,74.36
2022-09-07T01:26:22.557Z,74.32
2022-09-07T01:26:43.603Z,74.34
2022-09-07T01:27:04.673Z,74.29
2022-09-07T01:27:25.721Z,74.21
2022-09-07T01:27:46.769Z,74.14
2022-09-07T01:28:07.820Z,74.13
2022-09-07T01:28:28.953Z,74.18
2022-09-07T01:28:50.063Z,74.17
2022-09-07T01:29:11.113Z,74.11
2022-09-07T01:29:32.164Z,74.12
2022-09-07T01:29:53.213Z,74.19
2022-09-07T01:30:14.264Z,74.20
2022-09-07T01:30:35.321Z,74.30
2022-09-07T01:30:56.421Z,74.27
2022-09-07T01:31:17.494Z,74.30
2022-09-07T01:31:38.513Z,74.36
2022-09-07T01:31:59.702Z,74.33
2022-09-07T01:32:20.748Z,74.38
2022-09-07T01:32:41.796Z,74.39
2022-09-07T01:33:02.844Z,74.32
2022-09-07T01:33:23.894Z,74.26
2022-09-07T01:33:44.944Z,74.25
2022-09-07T01:34:05.990Z,74.29
2022-09-07T01:34:27.042Z,74.32
2022-09-07T01:34:48.092Z,74.35
2022-09-07T01:35:09.135Z,74.38
2022-09-07T01:35:30.182Z,74.43
2022-09-07T01:35:51.234Z,74.45
2022-09-07T01:36:12.288Z,74.37
2022-09-07T01:36:33.340Z,74.36
2022-09-07T01:36:54.394Z,74.33
2022-09-07T01:37:15.563Z,74.24
2022-09-07T01:37:36.621Z,74.17
2022-09-07T01:37:57.677Z,74.23
2022-09-07T01:38:18.721Z,74.25
2022-09-07T01:38:39.779Z,74.18
2022-09-07T01:39:00.824Z,74.02
2022-09-07T01:39:21.874Z,73.92
2022-09-07T01:39:42.989Z,73.89
2022-09-07T01:40:04.112Z,73.91
2022-09-07T01:40:25.133Z,74.12
2022-09-07T01:40:46.180Z,74.29
2022-09-07T01:41:07.230Z,74.36
2022-09-07T01:41:28.288Z,74.44
2022-09-07T01:41:49.341Z,74.39
2022-09-07T01:42:10.385Z,74.50
2022-09-07T01:42:31.450Z,74.52
2022-09-07T01:42:52.498Z,74.45
2022-09-07T01:43:13.558Z,74.41
2022-09-07T01:43:34.608Z,74.31
2022-09-07T01:43:55.657Z,74.28
2022-09-07T01:44:16.709Z,74.24
2022-09-07T01:44:37.761Z,74.17
2022-09-07T01:44:58.812Z,74.15
2022-09-07T01:45:19.862Z,74.10
2022-09-07T01:45:40.918Z,74.00
2022-09-07T01:46:02.025Z,73.94
2022-09-07T01:46:23.147Z,73.78
2022-09-07T01:46:44.266Z,73.74
2022-09-07T01:47:05.304Z,73.65
2022-09-07T01:47:26.350Z,73.61
2022-09-07T01:47:47.528Z,73.47
2022-09-07T01:48:08.574Z,73.49
2022-09-07T01:48:29.743Z,73.55
2022-09-07T01:48:50.752Z,73.67
2022-09-07T01:49:11.813Z,73.65
2022-09-07T01:49:32.856Z,73.75
2022-09-07T01:49:53.909Z,73.64
2022-09-07T01:50:14.963Z,73.66
2022-09-07T01:50:36.011Z,73.72
2022-09-07T01:50:57.059Z,73.78
2022-09-07T01:51:18.107Z,73.86
2022-09-07T01:51:39.161Z,73.94
2022-09-07T01:52:00.219Z,73.98
2022-09-07T01:52:21.271Z,73.97
2022-09-07T01:52:42.327Z,73.85
2022-09-07T01:53:03.519Z,73.86
2022-09-07T01:53:24.567Z,73.91
2022-09-07T01:53:45.625Z,73.92
2022-09-07T01:54:06.674Z,73.94
2022-09-07T01:54:27.734Z,73.97
2022-09-07T01:54:48.802Z,73.86
2022-09-07T01:55:09.857Z,73.77
2022-09-07T01:55:30.912Z,73.76
2022-09-07T01:55:51.960Z,73.75
2022-09-07T01:56:13.015Z,73.72
2022-09-07T01:56:34.068Z,73.55
2022-09-07T01:56:55.117Z,73.50
2022-09-07T01:57:16.181Z,73.46
2022-09-07T01:57:37.229Z,73.38
2022-09-07T01:57:58.289Z,73.44
2022-09-07T01:58:19.358Z,73.44
2022-09-07T01:58:40.404Z,73.53
2022-09-07T01:59:01.457Z,73.58
2022-09-07T01:59:22.506Z,73.67
2022-09-07T01:59:43.562Z,73.71
2022-09-07T02:00:04.615Z,73.74
2022-09-07T02:00:25.668Z,73.78
2022-09-07T02:00:46.718Z,73.69
2022-09-07T02:01:07.770Z,73.70
2022-09-07T02:01:28.847Z,73.66
2022-09-07T02:01:49.928Z,73.54
2022-09-07T02:02:10.963Z,73.54
2022-09-07T02:02:32.058Z,73.56
2022-09-07T02:02:53.118Z,73.50
2022-09-07T02:03:14.148Z,73.56
2022-09-07T02:03:35.325Z,73.61
2022-09-07T02:03:56.367Z,73.59
2022-09-07T02:04:17.417Z,73.65
2022-09-07T02:04:38.471Z,73.70
2022-09-07T02:04:59.519Z,73.66
2022-09-07T02:05:20.568Z,73.70
2022-09-07T02:05:41.619Z,73.67
2022-09-07T02:06:02.670Z,73.65
2022-09-07T02:06:23.730Z,73.61
2022-09-07T02:06:44.784Z,73.59
2022-09-07T02:07:05.830Z,73.61
2022-09-07T02:07:26.878Z,73.57
2022-09-07T02:07:47.929Z,73.60
2022-09-07T02:08:08.978Z,73.54
2022-09-07T02:08:30.209Z,73.54
2022-09-07T02:08:51.278Z,73.61
2022-09-07T02:09:12.344Z,73.60
2022-09-07T02:09:33.399Z,73.71
2022-09-07T02:09:54.452Z,73.72
2022-09-07T02:10:15.498Z,73.75
2022-09-07T02:10:36.549Z,73.75
2022-09-07T02:10:57.607Z,73.71
2022-09-07T02:11:18.659Z,73.78
2022-09-07T02:11:39.706Z,73.82
2022-09-07T02:12:00.756Z,73.76
2022-09-07T02:12:21.812Z,73.77
2022-09-07T02:12:42.866Z,73.73
2022-09-07T02:13:03.916Z,73.80
2022-09-07T02:13:24.971Z,73.64
2022-09-07T02:13:46.018Z,73.56
2022-09-07T02:14:07.188Z,73.49
2022-09-07T02:14:28.245Z,73.55
2022-09-07T02:14:52.492Z,73.55
2022-09-07T02:15:13.864Z,73.57
2022-09-07T02:15:34.960Z,73.56
2022-09-07T02:15:56.080Z,73.58
2022-09-07T02:16:17.176Z,73.60
2022-09-07T02:16:38.206Z,73.68
2022-09-07T02:16:59.253Z,73.77
2022-09-07T02:17:20.304Z,73.81
2022-09-07T02:17:41.352Z,73.83
2022-09-07T02:18:02.407Z,73.89
2022-09-07T02:18:23.464Z,73.91
2022-09-07T02:18:44.515Z,73.90
2022-09-07T02:19:05.563Z,73.82
2022-09-07T02:19:26.624Z,73.72
2022-09-07T02:19:47.674Z,73.70
2022-09-07T02:20:08.723Z,73.64
2022-09-07T02:20:29.785Z,73.69
2022-09-07T02:20:50.829Z,73.72
2022-09-07T02:21:11.879Z,73.71
2022-09-07T02:21:32.934Z,73.74
2022-09-07T02:21:53.976Z,73.73
2022-09-07T02:22:15.028Z,73.87
2022-09-07T02:22:36.082Z,73.83
2022-09-07T02:22:57.133Z,73.68
2022-09-07T02:23:18.184Z,73.51
2022-09-07T02:23:39.237Z,73.41
2022-09-07T02:24:00.288Z,73.35
2022-09-07T02:24:21.333Z,73.36
2022-09-07T02:24:42.505Z,73.28
2022-09-07T02:25:03.557Z,73.22
2022-09-07T02:25:24.605Z,73.21
2022-09-07T02:25:45.657Z,73.12
2022-09-07T02:26:06.709Z,73.08
2022-09-07T02:26:27.755Z,73.10
2022-09-07T02:26:48.809Z,73.03
2022-09-07T02:27:09.860Z,73.13
2022-09-07T02:27:30.907Z,73.07
2022-09-07T02:27:51.961Z,73.09
2022-09-07T02:28:13.006Z,73.08
2022-09-07T02:28:34.061Z,73.12
2022-09-07T02:28:55.104Z,73.10
2022-09-07T02:29:16.163Z,73.04
2022-09-07T02:29:37.211Z,73.02
2022-09-07T02:29:58.391Z,72.99
2022-09-07T02:30:19.442Z,73.01
2022-09-07T02:30:40.562Z,73.09
2022-09-07T02:31:01.748Z,73.10
2022-09-07T02:31:22.897Z,73.12
2022-09-07T02:31:44.031Z,73.16
2022-09-07T02:32:05.079Z,73.15
2022-09-07T02:32:26.129Z,73.00
2022-09-07T02:32:47.192Z,73.03
2022-09-07T02:33:08.241Z,73.06
2022-09-07T02:33:29.289Z,73.12
2022-09-07T02:33:50.334Z,73.24
2022-09-07T02:34:11.387Z,73.33
2022-09-07T02:34:32.441Z,73.42
2022-09-07T02:34:53.495Z,73.48
2022-09-07T02:35:14.658Z,73.48
2022-09-07T02:35:35.710Z,73.56
2022-09-07T02:35:56.768Z,73.49
2022-09-07T02:36:17.811Z,73.51
2022-09-07T02:36:38.861Z,73.45
2022-09-07T02:36:59.911Z,73.44
2022-09-07T02:37:20.959Z,73.43
2022-09-07T02:37:42.011Z,73.39
2022-09-07T02:38:03.067Z,73.41
2022-09-07T02:38:24.115Z,73.49
2022-09-07T02:38:45.168Z,73.62
2022-09-07T02:39:06.226Z,73.77
2022-09-07T02:39:27.330Z,73.78
2022-09-07T02:39:48.400Z,73.80
2022-09-07T02:40:09.558Z,73.85
2022-09-07T02:40:30.706Z,73.89
2022-09-07T02:40:51.768Z,73.88
2022-09-07T02:41:12.817Z,73.75
2022-09-07T02:41:33.876Z,73.70
2022-09-07T02:41:54.926Z,73.62
2022-09-07T02:42:15.990Z,73.59
2022-09-07T02:42:37.065Z,73.64
2022-09-07T02:42:58.119Z,73.76
2022-09-07T02:43:19.169Z,73.75
2022-09-07T02:43:40.221Z,73.81
2022-09-07T02:44:01.271Z,73.85
2022-09-07T02:44:22.322Z,73.92
2022-09-07T02:44:43.370Z,73.97
2022-09-07T02:45:04.422Z,73.97
2022-09-07T02:45:25.469Z,73.97
2022-09-07T02:45:46.579Z,74.01
2022-09-07T02:46:07.765Z,73.99
2022-09-07T02:46:28.861Z,73.96
2022-09-07T02:46:49.887Z,73.91
2022-09-07T02:47:10.936Z,73.94
2022-09-07T02:47:31.996Z,74.01
2022-09-07T02:47:53.039Z,74.05
2022-09-07T02:48:14.092Z,74.16
2022-09-07T02:48:35.152Z,74.26
2022-09-07T02:48:56.204Z,74.32
2022-09-07T02:49:17.259Z,74.25
2022-09-07T02:49:38.320Z,74.23
2022-09-07T02:49:59.379Z,74.11
2022-09-07T02:50:20.433Z,74.10
2022-09-07T02:50:41.481Z,73.96
2022-09-07T02:51:02.656Z,73.93
2022-09-07T02:51:23.726Z,73.82
2022-09-07T02:51:44.755Z,73.67
2022-09-07T02:52:05.811Z,73.69
2022-09-07T02:52:26.861Z,73.60
2022-09-07T02:52:47.903Z,73.58
2022-09-07T02:53:08.950Z,73.62
2022-09-07T02:53:30.010Z,73.62
2022-09-07T02:53:51.054Z,73.67
2022-09-07T02:54:12.115Z,73.72
2022-09-07T02:54:33.153Z,73.76
2022-09-07T02:54:54.225Z,73.81
2022-09-07T02:55:15.280Z,73.82
2022-09-07T02:55:36.337Z,73.81
2022-09-07T02:55:57.391Z,73.74
2022-09-07T02:56:18.438Z,73.79
2022-09-07T02:56:39.488Z,73.77
2022-09-07T02:57:00.543Z,73.72
2022-09-07T02:57:21.587Z,73.70
2022-09-07T02:57:42.642Z,73.71
2022-09-07T02:58:03.687Z,73.75
2022-09-07T02:58:24.788Z,73.71
2022-09-07T02:58:45.801Z,73.75
2022-09-07T02:59:06.857Z,73.78
2022-09-07T02:59:27.912Z,73.77
2022-09-07T02:59:48.975Z,73.81
2022-09-07T03:00:10.163Z,73.82
2022-09-07T03:00:31.208Z,73.84
2022-09-07T03:00:52.263Z,73.74
2022-09-07T03:01:13.386Z,73.69
2022-09-07T03:01:34.506Z,73.59
2022-09-07T03:01:55.577Z,73.49
2022-09-07T03:02:16.665Z,73.38
2022-09-07T03:02:37.747Z,73.36
2022-09-07T03:02:58.823Z,73.33
2022-09-07T03:03:19.840Z,73.33
2022-09-07T03:03:40.896Z,73.42
2022-09-07T03:04:01.946Z,73.50
2022-09-07T03:04:23.003Z,73.68
2022-09-07T03:04:44.053Z,73.75
2022-09-07T03:05:05.098Z,73.71
2022-09-07T03:05:26.165Z,73.59
2022-09-07T03:05:47.219Z,73.47
2022-09-07T03:06:08.269Z,73.44
2022-09-07T03:06:29.321Z,73.26
2022-09-07T03:06:50.372Z,73.14
2022-09-07T03:07:11.418Z,73.08
2022-09-07T03:07:35.764Z,73.00
2022-09-07T03:07:56.992Z,72.98
2022-09-07T03:08:18.058Z,72.97
2022-09-07T03:08:39.101Z,73.02
2022-09-07T03:09:00.151Z,73.10
2022-09-07T03:09:21.205Z,73.11
2022-09-07T03:09:42.259Z,72.94
2022-09-07T03:10:03.319Z,72.87
2022-09-07T03:10:24.368Z,72.84
2022-09-07T03:10:45.443Z,72.87
2022-09-07T03:11:06.496Z,72.87
2022-09-07T03:11:27.546Z,72.88
2022-09-07T03:11:48.595Z,72.85
2022-09-07T03:12:09.645Z,72.90
2022-09-07T03:12:30.692Z,73.05
2022-09-07T03:12:51.743Z,73.19
2022-09-07T03:13:12.799Z,73.25
2022-09-07T03:13:33.851Z,73.49
2022-09-07T03:13:54.904Z,73.54
2022-09-07T03:14:15.950Z,73.54
2022-09-07T03:14:37.001Z,73.48
2022-09-07T03:14:58.055Z,73.61
2022-09-07T03:15:19.105Z,73.72
2022-09-07T03:15:40.262Z,73.94
2022-09-07T03:16:01.462Z,74.02
2022-09-07T03:16:22.538Z,73.97
2022-09-07T03:16:43.574Z,73.85
2022-09-07T03:17:04.644Z,73.85
2022-09-07T03:17:25.678Z,73.99
2022-09-07T03:17:46.734Z,74.30
2022-09-07T03:18:07.781Z,74.49
2022-09-07T03:18:28.873Z,74.74
2022-09-07T03:18:49.937Z,74.98
2022-09-07T03:19:10.988Z,75.09
2022-09-07T03:19:32.050Z,75.27
2022-09-07T03:19:53.096Z,75.41
2022-09-07T03:20:14.154Z,75.43
2022-09-07T03:20:35.224Z,75.42
2022-09-07T03:20:56.273Z,75.36
2022-09-07T03:21:17.343Z,75.39
2022-09-07T03:21:38.405Z,75.58
2022-09-07T03:21:59.456Z,75.67
2022-09-07T03:22:20.516Z,75.77
2022-09-07T03:22:41.568Z,75.77
2022-09-07T03:23:02.621Z,75.77
2022-09-07T03:23:23.680Z,75.89
2022-09-07T03:23:47.766Z,75.98
2022-09-07T03:24:11.697Z,76.15
2022-09-07T03:24:32.750Z,76.25
2022-09-07T03:24:53.825Z,76.35
2022-09-07T03:25:14.844Z,76.35
2022-09-07T03:25:35.902Z,76.34
2022-09-07T03:25:56.952Z,76.26
2022-09-07T03:26:18.031Z,76.26
2022-09-07T03:26:39.189Z,76.11
2022-09-07T03:27:00.235Z,76.08
2022-09-07T03:27:21.289Z,75.95
2022-09-07T03:27:42.339Z,75.87
2022-09-07T03:28:03.394Z,75.80
2022-09-07T03:28:24.470Z,75.77
2022-09-07T03:28:45.525Z,75.84
2022-09-07T03:29:06.582Z,75.83
2022-09-07T03:29:27.624Z,75.78
2022-09-07T03:29:48.682Z,75.82
2022-09-07T03:30:09.727Z,75.92
2022-09-07T03:30:30.805Z,75.99
2022-09-07T03:30:51.902Z,75.99
2022-09-07T03:31:13.016Z,76.07
2022-09-07T03:31:34.138Z,76.10
2022-09-07T03:31:55.188Z,76.02
2022-09-07T03:32:16.238Z,75.96
2022-09-07T03:32:37.302Z,75.95
2022-09-07T03:32:58.344Z,75.96
2022-09-07T03:33:19.389Z,75.97
2022-09-07T03:33:40.459Z,75.93
2022-09-07T03:34:01.490Z,75.99
2022-09-07T03:34:22.543Z,76.08
2022-09-07T03:34:43.591Z,76.07
2022-09-07T03:35:04.660Z,76.09
2022-09-07T03:35:25.707Z,76.16
2022-09-07T03:35:46.762Z,76.17
2022-09-07T03:36:07.806Z,76.09
2022-09-07T03:36:28.853Z,76.00
2022-09-07T03:36:49.924Z,76.10
2022-09-07T03:37:10.978Z,75.99
2022-09-07T03:37:32.026Z,75.97
2022-09-07T03:37:53.083Z,75.99
2022-09-07T03:38:14.134Z,75.91
2022-09-07T03:38:35.245Z,75.96
2022-09-07T03:38:56.248Z,75.90
2022-09-07T03:39:17.303Z,75.81
2022-09-07T03:39:38.426Z,75.90
2022-09-07T03:39:59.508Z,75.94
2022-09-07T03:40:20.546Z,75.85
2022-09-07T03:40:41.603Z,75.82
2022-09-07T03:41:02.658Z,75.74
2022-09-07T03:41:23.728Z,75.74
2022-09-07T03:41:44.788Z,75.76
2022-09-07T03:42:05.948Z,75.73
2022-09-07T03:42:27.009Z,75.72
2022-09-07T03:42:48.063Z,75.74
2022-09-07T03:43:09.117Z,75.68
2022-09-07T03:43:30.186Z,75.70
2022-09-07T03:43:51.229Z,75.64
2022-09-07T03:44:12.282Z,75.71
2022-09-07T03:44:33.335Z,75.77
2022-09-07T03:44:54.390Z,75.78
2022-09-07T03:45:15.440Z,75.86
2022-09-07T03:45:36.493Z,75.82
2022-09-07T03:45:57.620Z,75.84
2022-09-07T03:46:18.707Z,75.79
2022-09-07T03:46:39.734Z,75.77
2022-09-07T03:47:00.786Z,75.83
2022-09-07T03:47:21.966Z,75.93
2022-09-07T03:47:43.014Z,75.96
2022-09-07T03:48:04.079Z,75.95
2022-09-07T03:48:25.184Z,75.89
2022-09-07T03:48:46.207Z,75.90
2022-09-07T03:49:07.263Z,75.93
2022-09-07T03:49:28.320Z,76.06
2022-09-07T03:49:49.388Z,76.14
2022-09-07T03:50:10.445Z,76.18
2022-09-07T03:50:31.486Z,76.24
2022-09-07T03:50:52.541Z,76.25
2022-09-07T03:51:13.592Z,76.22
2022-09-07T03:51:34.651Z,76.18
2022-09-07T03:51:55.708Z,76.13
2022-09-07T03:52:16.750Z,76.11
2022-09-07T03:52:37.824Z,76.15
2022-09-07T03:52:58.876Z,76.14
2022-09-07T03:53:19.921Z,76.12
2022-09-07T03:53:40.978Z,76.11
2022-09-07T03:54:02.033Z,76.05
2022-09-07T03:54:23.090Z,75.97
2022-09-07T03:54:44.149Z,76.00
2022-09-07T03:55:05.197Z,76.06
2022-09-07T03:55:26.251Z,76.16
2022-09-07T03:55:47.324Z,76.31
2022-09-07T03:56:08.369Z,76.41
2022-09-07T03:56:29.425Z,76.45
2022-09-07T03:56:50.479Z,76.52
2022-09-07T03:57:11.533Z,76.44
2022-09-07T03:57:32.591Z,76.45
2022-09-07T03:57:53.663Z,76.45
2022-09-07T03:58:14.725Z,76.40
2022-09-07T03:58:35.763Z,76.45
2022-09-07T03:58:56.815Z,76.57
2022-09-07T03:59:17.866Z,76.60
2022-09-07T03:59:38.914Z,76.57
2022-09-07T03:59:59.964Z,76.58
2022-09-07T04:00:21.017Z,76.65
2022-09-07T04:00:42.064Z,76.71
2022-09-07T04:01:03.159Z,76.66
2022-09-07T04:01:24.281Z,76.63
2022-09-07T04:01:45.357Z,76.61
2022-09-07T04:02:06.440Z,76.49
2022-09-07T04:02:27.545Z,76.41
2022-09-07T04:02:48.663Z,76.39
2022-09-07T04:03:09.819Z,76.48
2022-09-07T04:03:30.874Z,76.52
2022-09-07T04:03:51.939Z,76.51
2022-09-07T04:04:12.996Z,76.52
2022-09-07T04:04:34.049Z,76.59
2022-09-07T04:04:55.100Z,76.61
2022-09-07T04:05:16.158Z,76.54
2022-09-07T04:05:37.209Z,76.62
2022-09-07T04:05:58.265Z,76.66
2022-09-07T04:06:19.318Z,76.72
2022-09-07T04:06:40.371Z,76.70
2022-09-07T04:07:01.426Z,76.64
2022-09-07T04:07:22.487Z,76.60
2022-09-07T04:07:43.531Z,76.70
2022-09-07T04:08:04.587Z,76.80
2022-09-07T04:08:25.817Z,76.82
2022-09-07T04:08:46.901Z,76.78
2022-09-07T04:09:07.954Z,76.71
2022-09-07T04:09:29.008Z,76.74
2022-09-07T04:09:50.066Z,76.59
2022-09-07T04:10:11.119Z,76.61
2022-09-07T04:10:32.170Z,76.69
2022-09-07T04:10:53.223Z,76.73
2022-09-07T04:11:14.273Z,76.84
2022-09-07T04:11:35.322Z,76.83
2022-09-07T04:11:56.380Z,76.79
2022-09-07T04:12:17.437Z,76.86
2022-09-07T04:12:38.494Z,76.82
2022-09-07T04:12:59.546Z,76.81
2022-09-07T04:13:20.597Z,76.81
2022-09-07T04:13:41.775Z,76.90
2022-09-07T04:14:02.826Z,76.88
2022-09-07T04:14:23.879Z,76.77
2022-09-07T04:14:44.927Z,76.81
2022-09-07T04:15:05.983Z,76.83
2022-09-07T04:15:27.032Z,76.81
2022-09-07T04:15:52.087Z,76.81
2022-09-07T04:16:15.046Z,76.76
2022-09-07T04:16:36.194Z,76.70
2022-09-07T04:16:57.303Z,76.70
2022-09-07T04:17:18.341Z,76.67
2022-09-07T04:17:39.405Z,76.70
2022-09-07T04:18:00.452Z,76.73
2022-09-07T04:18:21.501Z,76.58
2022-09-07T04:18:42.581Z,76.45
2022-09-07T04:19:03.624Z,76.36
2022-09-07T04:19:24.676Z,76.24
2022-09-07T04:19:45.733Z,76.14
2022-09-07T04:20:06.781Z,76.23
2022-09-07T04:20:27.832Z,76.39
2022-09-07T04:20:48.889Z,76.51
2022-09-07T04:21:09.942Z,76.61
2022-09-07T04:21:30.995Z,76.67
2022-09-07T04:21:52.041Z,76.65
2022-09-07T04:22:13.087Z,76.52
2022-09-07T04:22:34.145Z,76.48
2022-09-07T04:22:55.193Z,76.54
2022-09-07T04:23:16.242Z,76.63
2022-09-07T04:23:37.296Z,76.71
2022-09-07T04:23:58.473Z,76.75
2022-09-07T04:24:19.530Z,76.80
2022-09-07T04:24:40.588Z,76.86
2022-09-07T04:25:01.643Z,76.92
2022-09-07T04:25:22.696Z,76.94
2022-09-07T04:25:43.748Z,77.00
2022-09-07T04:26:04.800Z,76.98
2022-09-07T04:26:25.862Z,77.05
2022-09-07T04:26:46.915Z,77.15
2022-09-07T04:27:07.967Z,77.13
2022-09-07T04:27:29.015Z,77.14
2022-09-07T04:27:50.067Z,77.13
2022-09-07T04:28:11.116Z,77.17
2022-09-07T04:28:32.296Z,77.16
2022-09-07T04:28:53.400Z,77.07
2022-09-07T04:29:14.468Z,77.09
2022-09-07T04:29:35.526Z,77.10
2022-09-07T04:29:56.571Z,77.12
2022-09-07T04:30:17.624Z,77.13
2022-09-07T04:30:38.738Z,77.14
2022-09-07T04:30:59.811Z,77.06
2022-09-07T04:31:20.937Z,76.95
2022-09-07T04:31:42.026Z,76.89
2022-09-07T04:32:03.072Z,76.76
2022-09-07T04:32:24.119Z,76.88
2022-09-07T04:32:45.185Z,76.88
2022-09-07T04:33:06.224Z,76.93
2022-09-07T04:33:27.274Z,77.00
2022-09-07T04:33:48.348Z,76.98
2022-09-07T04:34:09.545Z,76.92
2022-09-07T04:34:30.605Z,76.87
2022-09-07T04:34:51.646Z,76.91
2022-09-07T04:35:12.707Z,76.94
2022-09-07T04:35:33.772Z,76.97
2022-09-07T04:35:54.823Z,77.12
2022-09-07T04:36:15.875Z,77.14
2022-09-07T04:36:36.929Z,77.19
2022-09-07T04:36:57.983Z,77.24
2022-09-07T04:37:19.034Z,77.29
2022-09-07T04:37:40.088Z,77.23
2022-09-07T04:38:01.138Z,77.19
2022-09-07T04:38:22.188Z,77.21
2022-09-07T04:38:43.239Z,77.24
2022-09-07T04:39:04.297Z,77.29
2022-09-07T04:39:25.620Z,77.33
2022-09-07T04:39:46.713Z,77.43
2022-09-07T04:40:07.803Z,77.48
2022-09-07T04:40:28.846Z,77.50
2022-09-07T04:40:49.899Z,77.52
2022-09-07T04:41:10.966Z,77.58
2022-09-07T04:41:32.010Z,77.51
2022-09-07T04:41:53.071Z,77.50
2022-09-07T04:42:14.131Z,77.59
2022-09-07T04:42:35.184Z,77.63
2022-09-07T04:42:56.235Z,77.67
2022-09-07T04:43:17.292Z,77.70
2022-09-07T04:43:38.342Z,77.67
2022-09-07T04:43:59.399Z,77.59
2022-09-07T04:44:20.453Z,77.52
2022-09-07T04:44:41.528Z,77.46
2022-09-07T04:45:02.590Z,77.46
2022-09-07T04:45:23.641Z,77.47
2022-09-07T04:45:44.745Z,77.44
2022-09-07T04:46:05.867Z,77.40
2022-09-07T04:46:26.962Z,77.37
2022-09-07T04:46:48.019Z,77.26
2022-09-07T04:47:09.077Z,77.30
2022-09-07T04:47:30.132Z,77.28
2022-09-07T04:47:51.187Z,77.32
2022-09-07T04:48:12.236Z,77.40
2022-09-07T04:48:33.292Z,77.38
2022-09-07T04:48:54.347Z,77.36
2022-09-07T04:49:15.400Z,77.38
2022-09-07T04:49:36.447Z,77.40
2022-09-07T04:49:57.625Z,77.40
2022-09-07T04:50:18.676Z,77.44
2022-09-07T04:50:39.733Z,77.49
2022-09-07T04:51:04.049Z,77.60
2022-09-07T04:51:26.735Z,77.67
2022-09-07T04:51:47.789Z,77.56
2022-09-07T04:52:08.845Z,77.61
2022-09-07T04:52:29.905Z,77.52
2022-09-07T04:52:50.946Z,77.52
2022-09-07T04:53:11.998Z,77.56
2022-09-07T04:53:33.057Z,77.58
2022-09-07T04:53:54.112Z,77.53
2022-09-07T04:54:15.168Z,77.53
2022-09-07T04:54:36.229Z,77.58
2022-09-07T04:54:57.391Z,77.54
2022-09-07T04:55:18.443Z,77.43
2022-09-07T04:55:39.495Z,77.46
2022-09-07T04:56:00.546Z,77.40
2022-09-07T04:56:21.599Z,77.38
2022-09-07T04:56:42.768Z,77.33
2022-09-07T04:57:03.816Z,77.33
2022-09-07T04:57:24.867Z,77.29
2022-09-07T04:57:45.919Z,77.19
2022-09-07T04:58:06.970Z,77.14
2022-09-07T04:58:28.021Z,77.18
2022-09-07T04:58:49.067Z,77.12
2022-09-07T04:59:10.121Z,77.10
2022-09-07T04:59:31.176Z,77.09
2022-09-07T04:59:52.224Z,77.10
2022-09-07T05:00:13.601Z,77.11
2022-09-07T05:00:34.658Z,77.10
2022-09-07T05:00:55.778Z,77.14
2022-09-07T05:01:16.928Z,77.14
2022-09-07T05:01:38.040Z,77.08
2022-09-07T05:01:59.154Z,77.07
2022-09-07T05:02:20.227Z,77.12
2022-09-07T05:02:41.340Z,77.16
2022-09-07T05:03:02.389Z,77.17
2022-09-07T05:03:23.453Z,77.12
2022-09-07T05:03:44.501Z,77.14
2022-09-07T05:04:05.578Z,77.11
2022-09-07T05:04:26.614Z,77.08
2022-09-07T05:04:47.689Z,77.15
2022-09-07T05:05:08.743Z,77.14
2022-09-07T05:05:29.794Z,77.20
2022-09-07T05:05:50.838Z,77.26
2022-09-07T05:06:11.891Z,77.26
2022-09-07T05:06:32.949Z,77.24
2022-09-07T05:06:54.060Z,77.18
2022-09-07T05:07:15.064Z,77.23
2022-09-07T05:07:36.118Z,77.19
2022-09-07T05:07:57.167Z,77.19
2022-09-07T05:08:18.221Z,77.17
2022-09-07T05:08:39.274Z,77.15
2022-09-07T05:09:00.337Z,77.20
2022-09-07T05:09:21.407Z,77.11
2022-09-07T05:09:42.455Z,77.07
2022-09-07T05:10:03.507Z,77.05
2022-09-07T05:10:24.557Z,77.11
2022-09-07T05:10:45.615Z,77.12
2022-09-07T05:11:06.686Z,77.19
2022-09-07T05:11:29.451Z,77.26
2022-09-07T05:11:50.986Z,77.18
2022-09-07T05:12:12.032Z,77.13
2022-09-07T05:12:33.091Z,77.14
2022-09-07T05:12:54.145Z,77.16
2022-09-07T05:13:15.192Z,77.17
2022-09-07T05:13:36.256Z,77.21
2022-09-07T05:13:57.305Z,77.18
2022-09-07T05:14:18.384Z,77.13
2022-09-07T05:14:39.433Z,76.99
2022-09-07T05:15:00.481Z,76.92
2022-09-07T05:15:21.534Z,76.91
2022-09-07T05:15:42.589Z,76.93
2022-09-07T05:16:03.640Z,77.07
2022-09-07T05:16:24.758Z,77.10
2022-09-07T05:16:45.841Z,77.14
2022-09-07T05:17:06.891Z,77.04
2022-09-07T05:17:27.945Z,77.03
2022-09-07T05:17:49.000Z,76.98
2022-09-07T05:18:10.052Z,76.97
2022-09-07T05:18:31.333Z,76.94
2022-09-07T05:18:52.431Z,76.92
2022-09-07T05:19:13.482Z,76.94
2022-09-07T05:19:34.553Z,76.92
2022-09-07T05:19:55.606Z,76.85
2022-09-07T05:20:20.164Z,76.85
2022-09-07T05:20:41.389Z,77.01
2022-09-07T05:21:02.440Z,77.06
2022-09-07T05:21:23.497Z,77.03
2022-09-07T05:21:44.555Z,77.13
2022-09-07T05:22:05.614Z,77.13
2022-09-07T05:22:26.667Z,77.09
2022-09-07T05:22:47.725Z,77.14
2022-09-07T05:23:08.770Z,77.15
2022-09-07T05:23:29.831Z,77.12
2022-09-07T05:23:50.877Z,77.10
2022-09-07T05:24:11.935Z,77.07
2022-09-07T05:24:33.000Z,77.16
2022-09-07T05:24:54.086Z,77.24
2022-09-07T05:25:15.138Z,77.25
2022-09-07T05:25:36.198Z,77.27
2022-09-07T05:25:57.254Z,77.25
2022-09-07T05:26:18.307Z,77.27
2022-09-07T05:26:39.358Z,77.35
2022-09-07T05:27:00.416Z,77.38
2022-09-07T05:27:21.483Z,77.36
2022-09-07T05:27:42.530Z,77.44
2022-09-07T05:28:03.588Z,77.38
2022-09-07T05:28:24.639Z,77.40
2022-09-07T05:28:45.699Z,77.33
2022-09-07T05:31:36.705Z,77.35
2022-09-07T05:31:57.754Z,77.35
2022-09-07T05:32:18.810Z,77.29
2022-09-07T05:32:39.864Z,77.27
2022-09-07T05:33:00.920Z,77.23
2022-09-07T05:33:22.435Z,77.26
2022-09-07T05:34:37.420Z,77.43
2022-09-07T05:34:58.476Z,77.42
2022-09-07T05:35:19.578Z,77.40
2022-09-07T05:35:40.722Z,77.40